sensor_id;sensor_type;location;lat;lon;timestamp;P1;durP1;ratioP1;P2;durP2;ratioP2
31061;SDS011;17724;53.546;9.974;2022-08-19T00:02:29;10.07;;;6.63;;
31061;SDS011;17724;53.546;9.974;2022-08-19T00:06:31;9.80;;;6.90;;
31061;SDS011;17724;53.546;9.974;2022-08-19T00:10:31;11.20;;;6.53;;
31061;SDS011;17724;53.546;9.974;2022-08-19T00:14:32;10.20;;;6.80;;
31061;SDS011;17724;53.546;9.974;2022-08-19T00:18:33;11.83;;;7.60;;
31061;SDS011;17724;53.546;9.974;2022-08-19T00:22:34;9.90;;;7.07;;
31061;SDS011;17724;53.546;9.974;2022-08-19T00:26:35;10.20;;;6.70;;
31061;SDS011;17724;53.546;9.974;2022-08-19T00:30:36;10.17;;;7.37;;
31061;SDS011;17724;53.546;9.974;2022-08-19T00:34:37;11.47;;;7.80;;
31061;SDS011;17724;53.546;9.974;2022-08-19T00:38:38;15.37;;;10.47;;
31061;SDS011;17724;53.546;9.974;2022-08-19T00:42:43;15.00;;;12.50;;
31061;SDS011;17724;53.546;9.974;2022-08-19T00:46:45;14.50;;;10.90;;
31061;SDS011;17724;53.546;9.974;2022-08-19T00:50:47;16.23;;;11.27;;
31061;SDS011;17724;53.546;9.974;2022-08-19T00:54:50;16.90;;;11.40;;
31061;SDS011;17724;53.546;9.974;2022-08-19T00:58:53;19.43;;;13.80;;
31061;SDS011;17724;53.546;9.974;2022-08-19T01:02:56;17.20;;;13.33;;
31061;SDS011;17724;53.546;9.974;2022-08-19T01:06:57;18.60;;;14.70;;
31061;SDS011;17724;53.546;9.974;2022-08-19T01:10:59;20.70;;;17.60;;
31061;SDS011;17724;53.546;9.974;2022-08-19T01:15:00;21.00;;;17.10;;
31061;SDS011;17724;53.546;9.974;2022-08-19T01:19:02;20.80;;;17.73;;
31061;SDS011;17724;53.546;9.974;2022-08-19T01:23:04;20.80;;;17.00;;
31061;SDS011;17724;53.546;9.974;2022-08-19T01:27:05;20.50;;;15.47;;
31061;SDS011;17724;53.546;9.974;2022-08-19T01:31:06;21.50;;;17.23;;
31061;SDS011;17724;53.546;9.974;2022-08-19T01:35:13;18.50;;;14.50;;
31061;SDS011;17724;53.546;9.974;2022-08-19T01:39:16;19.70;;;15.43;;
31061;SDS011;17724;53.546;9.974;2022-08-19T01:43:20;19.13;;;16.93;;
31061;SDS011;17724;53.546;9.974;2022-08-19T01:47:20;18.23;;;14.87;;
31061;SDS011;17724;53.546;9.974;2022-08-19T01:51:21;18.60;;;15.80;;
31061;SDS011;17724;53.546;9.974;2022-08-19T01:55:21;18.33;;;15.30;;
31061;SDS011;17724;53.546;9.974;2022-08-19T01:59:24;20.17;;;15.17;;
31061;SDS011;17724;53.546;9.974;2022-08-19T02:03:24;18.33;;;15.00;;
31061;SDS011;17724;53.546;9.974;2022-08-19T02:07:25;18.63;;;15.97;;
31061;SDS011;17724;53.546;9.974;2022-08-19T02:11:27;18.40;;;14.77;;
31061;SDS011;17724;53.546;9.974;2022-08-19T02:15:31;19.33;;;16.10;;
31061;SDS011;17724;53.546;9.974;2022-08-19T02:19:32;18.20;;;15.23;;
31061;SDS011;17724;53.546;9.974;2022-08-19T02:23:32;22.53;;;16.73;;
31061;SDS011;17724;53.546;9.974;2022-08-19T02:27:33;19.07;;;15.20;;
31061;SDS011;17724;53.546;9.974;2022-08-19T02:31:33;19.10;;;15.43;;
31061;SDS011;17724;53.546;9.974;2022-08-19T02:35:34;20.40;;;16.63;;
31061;SDS011;17724;53.546;9.974;2022-08-19T02:39:34;23.17;;;18.90;;
31061;SDS011;17724;53.546;9.974;2022-08-19T02:43:35;21.90;;;17.80;;
31061;SDS011;17724;53.546;9.974;2022-08-19T02:47:36;22.17;;;17.30;;
31061;SDS011;17724;53.546;9.974;2022-08-19T02:51:40;22.13;;;16.93;;
31061;SDS011;17724;53.546;9.974;2022-08-19T02:55:43;27.47;;;20.90;;
31061;SDS011;17724;53.546;9.974;2022-08-19T02:59:45;25.13;;;19.37;;
31061;SDS011;17724;53.546;9.974;2022-08-19T03:03:46;24.90;;;18.23;;
31061;SDS011;17724;53.546;9.974;2022-08-19T03:07:46;26.23;;;17.40;;
31061;SDS011;17724;53.546;9.974;2022-08-19T03:11:47;21.60;;;17.87;;
31061;SDS011;17724;53.546;9.974;2022-08-19T03:15:47;27.80;;;20.10;;
31061;SDS011;17724;53.546;9.974;2022-08-19T03:19:48;28.63;;;22.23;;
31061;SDS011;17724;53.546;9.974;2022-08-19T03:23:49;30.60;;;21.80;;
31061;SDS011;17724;53.546;9.974;2022-08-19T03:27:49;37.70;;;24.57;;
31061;SDS011;17724;53.546;9.974;2022-08-19T03:31:50;34.47;;;24.20;;
31061;SDS011;17724;53.546;9.974;2022-08-19T03:36:01;35.90;;;22.87;;
31061;SDS011;17724;53.546;9.974;2022-08-19T03:40:02;33.90;;;22.23;;
31061;SDS011;17724;53.546;9.974;2022-08-19T03:44:03;31.47;;;23.10;;
31061;SDS011;17724;53.546;9.974;2022-08-19T03:48:05;30.57;;;23.33;;
31061;SDS011;17724;53.546;9.974;2022-08-19T03:52:05;41.20;;;26.70;;
31061;SDS011;17724;53.546;9.974;2022-08-19T03:56:08;28.60;;;21.63;;
31061;SDS011;17724;53.546;9.974;2022-08-19T04:00:09;29.80;;;22.60;;
31061;SDS011;17724;53.546;9.974;2022-08-19T04:04:11;30.53;;;24.03;;
31061;SDS011;17724;53.546;9.974;2022-08-19T04:08:11;30.93;;;23.70;;
31061;SDS011;17724;53.546;9.974;2022-08-19T04:12:12;29.90;;;21.90;;
31061;SDS011;17724;53.546;9.974;2022-08-19T04:16:13;34.37;;;23.90;;
31061;SDS011;17724;53.546;9.974;2022-08-19T04:20:14;31.60;;;23.20;;
31061;SDS011;17724;53.546;9.974;2022-08-19T04:24:17;35.33;;;24.43;;
31061;SDS011;17724;53.546;9.974;2022-08-19T04:28:18;27.93;;;23.40;;
31061;SDS011;17724;53.546;9.974;2022-08-19T04:32:18;34.40;;;25.03;;
31061;SDS011;17724;53.546;9.974;2022-08-19T04:36:23;29.00;;;23.70;;
31061;SDS011;17724;53.546;9.974;2022-08-19T04:40:26;28.27;;;23.60;;
31061;SDS011;17724;53.546;9.974;2022-08-19T04:44:45;27.57;;;22.83;;
31061;SDS011;17724;53.546;9.974;2022-08-19T04:48:45;26.63;;;23.07;;
31061;SDS011;17724;53.546;9.974;2022-08-19T04:52:46;27.10;;;24.07;;
31061;SDS011;17724;53.546;9.974;2022-08-19T04:56:46;29.20;;;22.50;;
31061;SDS011;17724;53.546;9.974;2022-08-19T05:00:49;26.80;;;22.07;;
31061;SDS011;17724;53.546;9.974;2022-08-19T05:04:57;27.83;;;23.60;;
31061;SDS011;17724;53.546;9.974;2022-08-19T05:09:01;24.43;;;19.20;;
31061;SDS011;17724;53.546;9.974;2022-08-19T05:13:04;24.90;;;18.17;;
31061;SDS011;17724;53.546;9.974;2022-08-19T05:17:04;22.33;;;17.77;;
31061;SDS011;17724;53.546;9.974;2022-08-19T05:21:08;23.73;;;18.80;;
31061;SDS011;17724;53.546;9.974;2022-08-19T05:25:32;24.40;;;19.00;;
31061;SDS011;17724;53.546;9.974;2022-08-19T05:29:33;22.87;;;18.20;;
31061;SDS011;17724;53.546;9.974;2022-08-19T05:33:34;19.47;;;15.77;;
31061;SDS011;17724;53.546;9.974;2022-08-19T05:37:35;21.70;;;16.23;;
31061;SDS011;17724;53.546;9.974;2022-08-19T05:41:35;24.13;;;16.53;;
31061;SDS011;17724;53.546;9.974;2022-08-19T05:45:39;20.77;;;14.87;;
31061;SDS011;17724;53.546;9.974;2022-08-19T05:49:40;19.27;;;14.27;;
31061;SDS011;17724;53.546;9.974;2022-08-19T05:53:42;21.00;;;14.60;;
31061;SDS011;17724;53.546;9.974;2022-08-19T05:57:45;18.27;;;14.23;;
31061;SDS011;17724;53.546;9.974;2022-08-19T06:01:46;22.50;;;15.90;;
31061;SDS011;17724;53.546;9.974;2022-08-19T06:05:50;19.00;;;15.57;;
31061;SDS011;17724;53.546;9.974;2022-08-19T06:09:51;20.77;;;14.00;;
31061;SDS011;17724;53.546;9.974;2022-08-19T06:13:52;17.57;;;13.30;;
31061;SDS011;17724;53.546;9.974;2022-08-19T06:17:53;19.50;;;15.50;;
31061;SDS011;17724;53.546;9.974;2022-08-19T06:21:53;27.70;;;14.70;;
31061;SDS011;17724;53.546;9.974;2022-08-19T06:25:54;23.43;;;15.43;;
31061;SDS011;17724;53.546;9.974;2022-08-19T06:29:54;20.30;;;14.50;;
31061;SDS011;17724;53.546;9.974;2022-08-19T06:33:55;19.17;;;13.93;;
31061;SDS011;17724;53.546;9.974;2022-08-19T06:37:55;21.03;;;15.63;;
31061;SDS011;17724;53.546;9.974;2022-08-19T06:41:57;20.37;;;15.03;;
31061;SDS011;17724;53.546;9.974;2022-08-19T06:45:59;18.43;;;15.03;;
31061;SDS011;17724;53.546;9.974;2022-08-19T06:50:01;25.83;;;17.23;;
31061;SDS011;17724;53.546;9.974;2022-08-19T06:54:02;23.00;;;15.83;;
31061;SDS011;17724;53.546;9.974;2022-08-19T06:58:03;26.90;;;19.20;;
31061;SDS011;17724;53.546;9.974;2022-08-19T07:02:05;22.60;;;17.27;;
31061;SDS011;17724;53.546;9.974;2022-08-19T07:06:07;22.07;;;17.17;;
31061;SDS011;17724;53.546;9.974;2022-08-19T07:10:10;23.53;;;16.17;;
31061;SDS011;17724;53.546;9.974;2022-08-19T07:14:17;18.90;;;12.97;;
31061;SDS011;17724;53.546;9.974;2022-08-19T07:18:20;19.20;;;12.93;;
31061;SDS011;17724;53.546;9.974;2022-08-19T07:22:21;18.57;;;12.73;;
31061;SDS011;17724;53.546;9.974;2022-08-19T07:26:28;18.30;;;12.30;;
31061;SDS011;17724;53.546;9.974;2022-08-19T07:30:32;15.37;;;10.30;;
31061;SDS011;17724;53.546;9.974;2022-08-19T07:34:32;15.00;;;11.90;;
31061;SDS011;17724;53.546;9.974;2022-08-19T07:38:38;16.13;;;10.50;;
31061;SDS011;17724;53.546;9.974;2022-08-19T07:42:40;15.30;;;10.30;;
31061;SDS011;17724;53.546;9.974;2022-08-19T07:46:44;18.40;;;10.30;;
31061;SDS011;17724;53.546;9.974;2022-08-19T07:50:46;17.60;;;14.50;;
31061;SDS011;17724;53.546;9.974;2022-08-19T07:54:48;15.37;;;9.87;;
31061;SDS011;17724;53.546;9.974;2022-08-19T07:58:50;12.20;;;7.63;;
31061;SDS011;17724;53.546;9.974;2022-08-19T08:02:52;14.00;;;9.20;;
31061;SDS011;17724;53.546;9.974;2022-08-19T08:06:53;15.23;;;8.03;;
31061;SDS011;17724;53.546;9.974;2022-08-19T08:11:13;16.40;;;9.67;;
31061;SDS011;17724;53.546;9.974;2022-08-19T08:15:15;15.77;;;8.63;;
31061;SDS011;17724;53.546;9.974;2022-08-19T08:19:17;17.00;;;9.33;;
31061;SDS011;17724;53.546;9.974;2022-08-19T08:23:19;14.80;;;9.23;;
31061;SDS011;17724;53.546;9.974;2022-08-19T08:27:22;14.03;;;10.60;;
31061;SDS011;17724;53.546;9.974;2022-08-19T08:31:22;16.07;;;11.40;;
31061;SDS011;17724;53.546;9.974;2022-08-19T08:35:23;14.13;;;9.90;;
31061;SDS011;17724;53.546;9.974;2022-08-19T08:39:24;18.33;;;10.97;;
31061;SDS011;17724;53.546;9.974;2022-08-19T08:43:29;16.57;;;11.00;;
31061;SDS011;17724;53.546;9.974;2022-08-19T08:47:34;15.13;;;11.80;;
31061;SDS011;17724;53.546;9.974;2022-08-19T08:51:40;19.17;;;12.57;;
31061;SDS011;17724;53.546;9.974;2022-08-19T08:55:47;18.20;;;13.40;;
31061;SDS011;17724;53.546;9.974;2022-08-19T08:59:48;19.33;;;12.67;;
31061;SDS011;17724;53.546;9.974;2022-08-19T09:03:51;16.33;;;12.90;;
31061;SDS011;17724;53.546;9.974;2022-08-19T09:16:21;26.40;;;15.97;;
31061;SDS011;17724;53.546;9.974;2022-08-19T09:20:24;19.77;;;15.13;;
31061;SDS011;17724;53.546;9.974;2022-08-19T09:24:26;22.73;;;14.40;;
31061;SDS011;17724;53.546;9.974;2022-08-19T09:28:26;18.40;;;13.13;;
31061;SDS011;17724;53.546;9.974;2022-08-19T09:32:27;15.77;;;11.30;;
31061;SDS011;17724;53.546;9.974;2022-08-19T09:36:28;20.57;;;13.53;;
31061;SDS011;17724;53.546;9.974;2022-08-19T09:40:30;17.40;;;13.37;;
31061;SDS011;17724;53.546;9.974;2022-08-19T09:44:30;21.07;;;13.37;;
31061;SDS011;17724;53.546;9.974;2022-08-19T09:48:34;17.20;;;12.23;;
31061;SDS011;17724;53.546;9.974;2022-08-19T09:52:35;15.17;;;10.67;;
31061;SDS011;17724;53.546;9.974;2022-08-19T09:56:36;19.60;;;12.67;;
31061;SDS011;17724;53.546;9.974;2022-08-19T10:00:37;18.20;;;12.97;;
31061;SDS011;17724;53.546;9.974;2022-08-19T10:04:38;16.53;;;11.63;;
31061;SDS011;17724;53.546;9.974;2022-08-19T10:09:08;17.77;;;12.03;;
31061;SDS011;17724;53.546;9.974;2022-08-19T10:13:11;15.43;;;11.60;;
31061;SDS011;17724;53.546;9.974;2022-08-19T10:17:12;15.83;;;11.57;;
31061;SDS011;17724;53.546;9.974;2022-08-19T10:21:14;17.03;;;12.20;;
31061;SDS011;17724;53.546;9.974;2022-08-19T10:25:18;18.20;;;14.70;;
31061;SDS011;17724;53.546;9.974;2022-08-19T10:29:19;18.33;;;14.10;;
31061;SDS011;17724;53.546;9.974;2022-08-19T10:33:19;18.30;;;13.97;;
31061;SDS011;17724;53.546;9.974;2022-08-19T10:37:20;16.23;;;13.50;;
31061;SDS011;17724;53.546;9.974;2022-08-19T10:41:21;20.83;;;14.47;;
31061;SDS011;17724;53.546;9.974;2022-08-19T10:45:23;17.17;;;14.63;;
31061;SDS011;17724;53.546;9.974;2022-08-19T10:49:26;18.00;;;15.20;;
31061;SDS011;17724;53.546;9.974;2022-08-19T10:53:26;18.00;;;14.20;;
31061;SDS011;17724;53.546;9.974;2022-08-19T10:57:30;19.57;;;15.77;;
31061;SDS011;17724;53.546;9.974;2022-08-19T11:01:31;18.53;;;14.23;;
31061;SDS011;17724;53.546;9.974;2022-08-19T11:05:33;21.90;;;15.50;;
31061;SDS011;17724;53.546;9.974;2022-08-19T11:09:39;17.80;;;14.97;;
31061;SDS011;17724;53.546;9.974;2022-08-19T11:13:41;20.13;;;16.40;;
31061;SDS011;17724;53.546;9.974;2022-08-19T11:17:42;21.17;;;14.87;;
31061;SDS011;17724;53.546;9.974;2022-08-19T11:21:44;18.90;;;14.70;;
31061;SDS011;17724;53.546;9.974;2022-08-19T11:25:46;21.07;;;16.47;;
31061;SDS011;17724;53.546;9.974;2022-08-19T11:29:47;17.17;;;14.80;;
31061;SDS011;17724;53.546;9.974;2022-08-19T11:33:47;19.07;;;14.47;;
31061;SDS011;17724;53.546;9.974;2022-08-19T11:37:53;19.80;;;14.50;;
31061;SDS011;17724;53.546;9.974;2022-08-19T11:41:54;17.73;;;13.80;;
31061;SDS011;17724;53.546;9.974;2022-08-19T11:45:55;16.80;;;13.07;;
31061;SDS011;17724;53.546;9.974;2022-08-19T11:49:57;18.87;;;15.10;;
31061;SDS011;17724;53.546;9.974;2022-08-19T11:53:58;18.07;;;14.20;;
31061;SDS011;17724;53.546;9.974;2022-08-19T11:57:59;16.77;;;13.47;;
31061;SDS011;17724;53.546;9.974;2022-08-19T12:01:59;15.77;;;13.07;;
31061;SDS011;17724;53.546;9.974;2022-08-19T12:06:04;13.50;;;11.50;;
31061;SDS011;17724;53.546;9.974;2022-08-19T12:10:05;16.33;;;12.70;;
31061;SDS011;17724;53.546;9.974;2022-08-19T12:14:06;21.37;;;16.10;;
31061;SDS011;17724;53.546;9.974;2022-08-19T12:18:11;17.20;;;14.60;;
31061;SDS011;17724;53.546;9.974;2022-08-19T12:22:13;16.67;;;14.37;;
31061;SDS011;17724;53.546;9.974;2022-08-19T12:26:14;17.20;;;13.43;;
31061;SDS011;17724;53.546;9.974;2022-08-19T12:30:15;16.60;;;12.27;;
31061;SDS011;17724;53.546;9.974;2022-08-19T12:34:15;15.23;;;13.63;;
31061;SDS011;17724;53.546;9.974;2022-08-19T12:38:16;13.93;;;11.87;;
31061;SDS011;17724;53.546;9.974;2022-08-19T12:42:17;15.67;;;13.40;;
31061;SDS011;17724;53.546;9.974;2022-08-19T12:46:19;17.27;;;12.57;;
31061;SDS011;17724;53.546;9.974;2022-08-19T12:50:19;13.40;;;10.80;;
31061;SDS011;17724;53.546;9.974;2022-08-19T12:54:21;12.30;;;9.40;;
31061;SDS011;17724;53.546;9.974;2022-08-19T12:58:21;14.47;;;12.20;;
31061;SDS011;17724;53.546;9.974;2022-08-19T13:02:22;14.03;;;10.73;;
31061;SDS011;17724;53.546;9.974;2022-08-19T13:06:22;13.60;;;11.30;;
31061;SDS011;17724;53.546;9.974;2022-08-19T13:10:24;15.63;;;14.00;;
31061;SDS011;17724;53.546;9.974;2022-08-19T13:14:27;19.90;;;18.00;;
31061;SDS011;17724;53.546;9.974;2022-08-19T13:18:30;15.00;;;13.50;;
31061;SDS011;17724;53.546;9.974;2022-08-19T13:22:31;15.63;;;14.00;;
31061;SDS011;17724;53.546;9.974;2022-08-19T13:26:32;14.17;;;12.03;;
31061;SDS011;17724;53.546;9.974;2022-08-19T13:30:32;14.40;;;12.43;;
31061;SDS011;17724;53.546;9.974;2022-08-19T13:34:51;15.07;;;13.57;;
31061;SDS011;17724;53.546;9.974;2022-08-19T13:38:52;16.50;;;12.20;;
31061;SDS011;17724;53.546;9.974;2022-08-19T13:42:53;14.40;;;11.90;;
31061;SDS011;17724;53.546;9.974;2022-08-19T13:46:55;14.57;;;13.07;;
31061;SDS011;17724;53.546;9.974;2022-08-19T13:51:05;17.37;;;11.80;;
31061;SDS011;17724;53.546;9.974;2022-08-19T13:55:06;13.10;;;10.53;;
31061;SDS011;17724;53.546;9.974;2022-08-19T13:59:08;14.00;;;11.20;;
31061;SDS011;17724;53.546;9.974;2022-08-19T14:03:09;12.83;;;10.80;;
31061;SDS011;17724;53.546;9.974;2022-08-19T14:07:09;12.60;;;10.93;;
31061;SDS011;17724;53.546;9.974;2022-08-19T14:11:10;13.00;;;10.83;;
31061;SDS011;17724;53.546;9.974;2022-08-19T14:15:11;12.83;;;10.57;;
31061;SDS011;17724;53.546;9.974;2022-08-19T14:19:12;13.27;;;11.50;;
31061;SDS011;17724;53.546;9.974;2022-08-19T14:23:13;15.30;;;13.43;;
31061;SDS011;17724;53.546;9.974;2022-08-19T14:27:13;13.80;;;12.00;;
31061;SDS011;17724;53.546;9.974;2022-08-19T14:31:18;12.70;;;11.40;;
31061;SDS011;17724;53.546;9.974;2022-08-19T14:35:19;12.63;;;11.33;;
31061;SDS011;17724;53.546;9.974;2022-08-19T14:39:21;16.97;;;13.23;;
31061;SDS011;17724;53.546;9.974;2022-08-19T14:43:22;12.90;;;11.50;;
31061;SDS011;17724;53.546;9.974;2022-08-19T14:47:22;15.10;;;13.17;;
31061;SDS011;17724;53.546;9.974;2022-08-19T14:51:23;15.43;;;13.60;;
31061;SDS011;17724;53.546;9.974;2022-08-19T14:55:26;27.27;;;24.43;;
31061;SDS011;17724;53.546;9.974;2022-08-19T14:59:27;18.93;;;17.13;;
31061;SDS011;17724;53.546;9.974;2022-08-19T15:03:28;14.50;;;12.73;;
31061;SDS011;17724;53.546;9.974;2022-08-19T15:07:28;15.60;;;14.00;;
31061;SDS011;17724;53.546;9.974;2022-08-19T15:11:29;14.87;;;12.43;;
31061;SDS011;17724;53.546;9.974;2022-08-19T15:15:32;19.47;;;16.27;;
31061;SDS011;17724;53.546;9.974;2022-08-19T15:19:32;23.30;;;21.10;;
31061;SDS011;17724;53.546;9.974;2022-08-19T15:23:35;14.03;;;12.63;;
31061;SDS011;17724;53.546;9.974;2022-08-19T15:27:36;14.40;;;12.73;;
31061;SDS011;17724;53.546;9.974;2022-08-19T15:31:38;13.40;;;11.90;;
31061;SDS011;17724;53.546;9.974;2022-08-19T15:35:39;15.73;;;14.03;;
31061;SDS011;17724;53.546;9.974;2022-08-19T15:39:40;16.97;;;15.10;;
31061;SDS011;17724;53.546;9.974;2022-08-19T15:43:41;17.50;;;14.10;;
31061;SDS011;17724;53.546;9.974;2022-08-19T15:47:42;24.00;;;21.70;;
31061;SDS011;17724;53.546;9.974;2022-08-19T15:51:44;19.47;;;17.60;;
31061;SDS011;17724;53.546;9.974;2022-08-19T15:55:46;30.10;;;27.30;;
31061;SDS011;17724;53.546;9.974;2022-08-19T15:59:47;13.13;;;11.73;;
31061;SDS011;17724;53.546;9.974;2022-08-19T16:04:06;17.20;;;15.50;;
31061;SDS011;17724;53.546;9.974;2022-08-19T16:08:25;31.87;;;29.00;;
31061;SDS011;17724;53.546;9.974;2022-08-19T16:12:25;12.93;;;11.63;;
31061;SDS011;17724;53.546;9.974;2022-08-19T16:16:29;20.33;;;17.30;;
31061;SDS011;17724;53.546;9.974;2022-08-19T16:20:32;18.00;;;16.30;;
31061;SDS011;17724;53.546;9.974;2022-08-19T16:24:33;10.47;;;8.40;;
31061;SDS011;17724;53.546;9.974;2022-08-19T16:28:33;12.67;;;10.50;;
31061;SDS011;17724;53.546;9.974;2022-08-19T16:32:34;11.70;;;8.97;;
31061;SDS011;17724;53.546;9.974;2022-08-19T16:36:34;14.27;;;11.57;;
31061;SDS011;17724;53.546;9.974;2022-08-19T16:40:35;12.13;;;9.13;;
31061;SDS011;17724;53.546;9.974;2022-08-19T16:44:35;17.40;;;15.10;;
31061;SDS011;17724;53.546;9.974;2022-08-19T16:48:39;14.30;;;11.43;;
31061;SDS011;17724;53.546;9.974;2022-08-19T16:52:42;11.80;;;9.33;;
31061;SDS011;17724;53.546;9.974;2022-08-19T16:56:42;19.17;;;13.00;;
31061;SDS011;17724;53.546;9.974;2022-08-19T17:00:44;10.03;;;8.47;;
31061;SDS011;17724;53.546;9.974;2022-08-19T17:04:45;18.50;;;16.50;;
31061;SDS011;17724;53.546;9.974;2022-08-19T17:08:49;13.03;;;10.03;;
31061;SDS011;17724;53.546;9.974;2022-08-19T17:12:51;8.97;;;6.57;;
31061;SDS011;17724;53.546;9.974;2022-08-19T17:16:53;10.50;;;7.63;;
31061;SDS011;17724;53.546;9.974;2022-08-19T17:20:53;18.37;;;15.43;;
31061;SDS011;17724;53.546;9.974;2022-08-19T17:24:55;12.23;;;10.47;;
31061;SDS011;17724;53.546;9.974;2022-08-19T17:28:56;12.07;;;10.27;;
31061;SDS011;17724;53.546;9.974;2022-08-19T17:32:58;17.33;;;15.63;;
31061;SDS011;17724;53.546;9.974;2022-08-19T17:36:58;15.73;;;11.50;;
31061;SDS011;17724;53.546;9.974;2022-08-19T17:40:59;28.47;;;25.40;;
31061;SDS011;17724;53.546;9.974;2022-08-19T17:45:04;22.63;;;20.10;;
31061;SDS011;17724;53.546;9.974;2022-08-19T17:49:05;22.57;;;20.17;;
31061;SDS011;17724;53.546;9.974;2022-08-19T17:53:06;16.97;;;15.17;;
31061;SDS011;17724;53.546;9.974;2022-08-19T17:57:07;16.63;;;14.90;;
31061;SDS011;17724;53.546;9.974;2022-08-19T18:01:10;24.90;;;22.60;;
31061;SDS011;17724;53.546;9.974;2022-08-19T18:05:12;14.53;;;13.03;;
31061;SDS011;17724;53.546;9.974;2022-08-19T18:09:13;27.17;;;24.87;;
31061;SDS011;17724;53.546;9.974;2022-08-19T18:13:14;15.60;;;13.80;;
31061;SDS011;17724;53.546;9.974;2022-08-19T18:17:15;20.57;;;18.53;;
31061;SDS011;17724;53.546;9.974;2022-08-19T18:21:18;14.20;;;12.70;;
31061;SDS011;17724;53.546;9.974;2022-08-19T18:25:20;17.57;;;15.87;;
31061;SDS011;17724;53.546;9.974;2022-08-19T18:29:25;17.00;;;15.30;;
31061;SDS011;17724;53.546;9.974;2022-08-19T18:33:32;16.93;;;15.13;;
31061;SDS011;17724;53.546;9.974;2022-08-19T18:37:33;56.10;;;50.60;;
31061;SDS011;17724;53.546;9.974;2022-08-19T18:41:34;41.87;;;37.80;;
31061;SDS011;17724;53.546;9.974;2022-08-19T18:45:53;42.60;;;38.77;;
31061;SDS011;17724;53.546;9.974;2022-08-19T18:50:12;26.70;;;23.87;;
31061;SDS011;17724;53.546;9.974;2022-08-19T18:54:14;38.00;;;32.07;;
31061;SDS011;17724;53.546;9.974;2022-08-19T18:58:15;27.00;;;24.40;;
31061;SDS011;17724;53.546;9.974;2022-08-19T19:02:15;39.43;;;35.73;;
31061;SDS011;17724;53.546;9.974;2022-08-19T19:06:21;19.70;;;17.70;;
31061;SDS011;17724;53.546;9.974;2022-08-19T19:10:24;24.60;;;22.30;;
31061;SDS011;17724;53.546;9.974;2022-08-19T19:14:26;19.90;;;15.10;;
31061;SDS011;17724;53.546;9.974;2022-08-19T19:18:31;15.80;;;14.03;;
31061;SDS011;17724;53.546;9.974;2022-08-19T19:22:33;15.83;;;13.87;;
31061;SDS011;17724;53.546;9.974;2022-08-19T19:26:33;25.97;;;23.67;;
31061;SDS011;17724;53.546;9.974;2022-08-19T19:30:35;33.60;;;30.40;;
31061;SDS011;17724;53.546;9.974;2022-08-19T19:34:36;31.60;;;28.60;;
31061;SDS011;17724;53.546;9.974;2022-08-19T19:38:38;24.13;;;21.93;;
31061;SDS011;17724;53.546;9.974;2022-08-19T19:42:42;25.63;;;23.23;;
31061;SDS011;17724;53.546;9.974;2022-08-19T19:46:42;24.00;;;21.70;;
31061;SDS011;17724;53.546;9.974;2022-08-19T19:50:43;25.07;;;22.67;;
31061;SDS011;17724;53.546;9.974;2022-08-19T19:54:44;25.50;;;23.10;;
31061;SDS011;17724;53.546;9.974;2022-08-19T19:58:45;21.43;;;19.23;;
31061;SDS011;17724;53.546;9.974;2022-08-19T20:02:47;26.47;;;23.67;;
31061;SDS011;17724;53.546;9.974;2022-08-19T20:06:48;18.50;;;16.70;;
31061;SDS011;17724;53.546;9.974;2022-08-19T20:10:49;20.13;;;18.00;;
31061;SDS011;17724;53.546;9.974;2022-08-19T20:14:49;22.70;;;20.50;;
31061;SDS011;17724;53.546;9.974;2022-08-19T20:18:50;21.80;;;19.60;;
31061;SDS011;17724;53.546;9.974;2022-08-19T20:22:51;25.03;;;22.83;;
31061;SDS011;17724;53.546;9.974;2022-08-19T20:26:53;21.23;;;19.23;;
31061;SDS011;17724;53.546;9.974;2022-08-19T20:30:53;22.97;;;20.77;;
31061;SDS011;17724;53.546;9.974;2022-08-19T20:34:53;18.63;;;16.70;;
31061;SDS011;17724;53.546;9.974;2022-08-19T20:38:57;20.67;;;18.57;;
31061;SDS011;17724;53.546;9.974;2022-08-19T20:42:58;21.00;;;18.87;;
31061;SDS011;17724;53.546;9.974;2022-08-19T20:46:58;63.33;;;57.53;;
31061;SDS011;17724;53.546;9.974;2022-08-19T20:50:58;25.63;;;23.27;;
31061;SDS011;17724;53.546;9.974;2022-08-19T20:54:59;22.23;;;20.00;;
31061;SDS011;17724;53.546;9.974;2022-08-19T20:59:00;26.23;;;23.73;;
31061;SDS011;17724;53.546;9.974;2022-08-19T21:03:03;26.80;;;24.40;;
31061;SDS011;17724;53.546;9.974;2022-08-19T21:07:04;20.97;;;18.97;;
31061;SDS011;17724;53.546;9.974;2022-08-19T21:11:05;25.50;;;23.20;;
31061;SDS011;17724;53.546;9.974;2022-08-19T21:15:06;20.30;;;18.27;;
31061;SDS011;17724;53.546;9.974;2022-08-19T21:19:07;16.40;;;14.70;;
31061;SDS011;17724;53.546;9.974;2022-08-19T21:23:09;16.57;;;14.00;;
31061;SDS011;17724;53.546;9.974;2022-08-19T21:27:13;14.60;;;12.90;;
31061;SDS011;17724;53.546;9.974;2022-08-19T21:31:13;15.70;;;13.00;;
31061;SDS011;17724;53.546;9.974;2022-08-19T21:35:16;15.70;;;13.50;;
31061;SDS011;17724;53.546;9.974;2022-08-19T21:39:18;16.80;;;14.07;;
31061;SDS011;17724;53.546;9.974;2022-08-19T21:43:19;15.93;;;14.07;;
31061;SDS011;17724;53.546;9.974;2022-08-19T21:47:19;17.20;;;13.70;;
31061;SDS011;17724;53.546;9.974;2022-08-19T21:51:19;16.17;;;14.57;;
31061;SDS011;17724;53.546;9.974;2022-08-19T21:55:20;16.77;;;14.53;;
31061;SDS011;17724;53.546;9.974;2022-08-19T21:59:20;16.73;;;14.87;;
31061;SDS011;17724;53.546;9.974;2022-08-19T22:03:21;17.03;;;14.60;;
31061;SDS011;17724;53.546;9.974;2022-08-19T22:07:21;15.30;;;13.70;;
31061;SDS011;17724;53.546;9.974;2022-08-19T22:11:22;17.07;;;13.63;;
31061;SDS011;17724;53.546;9.974;2022-08-19T22:15:24;14.27;;;12.63;;
31061;SDS011;17724;53.546;9.974;2022-08-19T22:19:26;14.63;;;11.50;;
31061;SDS011;17724;53.546;9.974;2022-08-19T22:23:28;14.20;;;11.37;;
31061;SDS011;17724;53.546;9.974;2022-08-19T22:27:29;13.10;;;10.77;;
31061;SDS011;17724;53.546;9.974;2022-08-19T22:31:29;12.43;;;10.10;;
31061;SDS011;17724;53.546;9.974;2022-08-19T22:35:30;11.63;;;9.00;;
31061;SDS011;17724;53.546;9.974;2022-08-19T22:39:33;12.00;;;8.87;;
31061;SDS011;17724;53.546;9.974;2022-08-19T22:43:33;10.50;;;8.27;;
31061;SDS011;17724;53.546;9.974;2022-08-19T22:47:36;11.63;;;7.80;;
31061;SDS011;17724;53.546;9.974;2022-08-19T22:51:37;10.93;;;7.53;;
31061;SDS011;17724;53.546;9.974;2022-08-19T22:55:57;10.60;;;8.07;;
31061;SDS011;17724;53.546;9.974;2022-08-19T22:59:57;10.57;;;7.93;;
31061;SDS011;17724;53.546;9.974;2022-08-19T23:03:58;10.93;;;8.87;;
31061;SDS011;17724;53.546;9.974;2022-08-19T23:07:59;13.40;;;10.70;;
31061;SDS011;17724;53.546;9.974;2022-08-19T23:11:59;12.17;;;9.70;;
31061;SDS011;17724;53.546;9.974;2022-08-19T23:15:59;16.03;;;11.00;;
31061;SDS011;17724;53.546;9.974;2022-08-19T23:20:00;14.10;;;11.80;;
31061;SDS011;17724;53.546;9.974;2022-08-19T23:24:01;12.80;;;10.40;;
31061;SDS011;17724;53.546;9.974;2022-08-19T23:28:01;14.20;;;11.50;;
31061;SDS011;17724;53.546;9.974;2022-08-19T23:32:21;13.90;;;10.47;;
31061;SDS011;17724;53.546;9.974;2022-08-19T23:36:24;12.23;;;9.33;;
31061;SDS011;17724;53.546;9.974;2022-08-19T23:40:26;12.47;;;8.87;;
31061;SDS011;17724;53.546;9.974;2022-08-19T23:44:27;11.03;;;7.80;;
31061;SDS011;17724;53.546;9.974;2022-08-19T23:48:28;12.00;;;8.10;;